Allenville, Illinois
Current Conditions -  °F | °C
As of 9:53 PM on Saturday 25 Oct 2014 (Local Time) from KMTO Reporting Station
Clear Clear  
Wind Chill: 57°   Ceiling: Unl
Heat Index: 57°   Visibility: 10mi
Dew Point: 45°   Wind: 7mph
Humidity: 64%   Direction: 290°WNW
Pressure: 30"   Gusts: NA
Location:  39.5872°N, 88.5835°W
Report Text: KMTO 260253Z AUTO 29006KT 10SM CLR 14/07 A3000 RMK AO2 SLP155 T01390072 53005
Loading
Personal Weather Stations






























Interactive Weather Map
Tropical Storm Tracking
New forecast layout! Learn more

10-Day Weather Forecast

Advertisements
Track Severe Weather on mobile